sensor_id;sensor_type;location;lat;lon;timestamp;P1;durP1;ratioP1;P2;durP2;ratioP2
36191;SDS011;22233;42.708;23.360;2023-04-05T00:00:53;8.70;;;6.53;;
36191;SDS011;22233;42.708;23.360;2023-04-05T00:03:19;8.55;;;5.80;;
36191;SDS011;22233;42.708;23.360;2023-04-05T00:05:45;7.43;;;5.45;;
36191;SDS011;22233;42.708;23.360;2023-04-05T00:08:13;8.82;;;5.93;;
36191;SDS011;22233;42.708;23.360;2023-04-05T00:10:47;7.80;;;5.38;;
36191;SDS011;22233;42.708;23.360;2023-04-05T00:13:14;7.53;;;5.57;;
36191;SDS011;22233;42.708;23.360;2023-04-05T00:15:39;7.25;;;4.95;;
36191;SDS011;22233;42.708;23.360;2023-04-05T00:18:05;7.43;;;4.90;;
36191;SDS011;22233;42.708;23.360;2023-04-05T00:20:30;6.80;;;5.03;;
36191;SDS011;22233;42.708;23.360;2023-04-05T00:22:57;6.72;;;4.78;;
36191;SDS011;22233;42.708;23.360;2023-04-05T00:25:23;6.65;;;5.25;;
36191;SDS011;22233;42.708;23.360;2023-04-05T00:27:49;6.63;;;5.22;;
36191;SDS011;22233;42.708;23.360;2023-04-05T00:30:14;7.55;;;5.28;;
36191;SDS011;22233;42.708;23.360;2023-04-05T00:32:48;7.20;;;4.97;;
36191;SDS011;22233;42.708;23.360;2023-04-05T00:35:14;7.22;;;5.22;;
36191;SDS011;22233;42.708;23.360;2023-04-05T00:37:40;7.53;;;4.75;;
36191;SDS011;22233;42.708;23.360;2023-04-05T00:40:06;7.53;;;5.03;;
36191;SDS011;22233;42.708;23.360;2023-04-05T00:42:34;7.15;;;5.05;;
36191;SDS011;22233;42.708;23.360;2023-04-05T00:45:00;7.28;;;5.18;;
36191;SDS011;22233;42.708;23.360;2023-04-05T00:47:25;6.30;;;4.65;;
36191;SDS011;22233;42.708;23.360;2023-04-05T00:49:51;7.22;;;5.15;;
36191;SDS011;22233;42.708;23.360;2023-04-05T00:52:17;7.43;;;5.40;;
36191;SDS011;22233;42.708;23.360;2023-04-05T00:54:47;5.88;;;4.32;;
36191;SDS011;22233;42.708;23.360;2023-04-05T00:57:13;6.90;;;5.15;;
36191;SDS011;22233;42.708;23.360;2023-04-05T00:59:40;5.13;;;3.92;;
36191;SDS011;22233;42.708;23.360;2023-04-05T01:02:14;6.78;;;4.40;;
36191;SDS011;22233;42.708;23.360;2023-04-05T01:04:46;6.97;;;4.50;;
36191;SDS011;22233;42.708;23.360;2023-04-05T01:10:18;6.07;;;4.38;;
36191;SDS011;22233;42.708;23.360;2023-04-05T01:12:46;5.85;;;4.30;;
36191;SDS011;22233;42.708;23.360;2023-04-05T01:15:12;4.85;;;4.00;;
36191;SDS011;22233;42.708;23.360;2023-04-05T01:17:38;5.93;;;4.78;;
36191;SDS011;22233;42.708;23.360;2023-04-05T01:20:04;5.60;;;5.03;;
36191;SDS011;22233;42.708;23.360;2023-04-05T01:31:45;5.72;;;3.88;;
36191;SDS011;22233;42.708;23.360;2023-04-05T01:36:55;5.45;;;3.88;;
36191;SDS011;22233;42.708;23.360;2023-04-05T01:39:25;6.13;;;3.65;;
36191;SDS011;22233;42.708;23.360;2023-04-05T01:41:56;7.07;;;3.67;;
36191;SDS011;22233;42.708;23.360;2023-04-05T01:44:23;5.43;;;4.05;;
36191;SDS011;22233;42.708;23.360;2023-04-05T01:46:48;5.25;;;3.60;;
36191;SDS011;22233;42.708;23.360;2023-04-05T01:49:14;5.05;;;3.60;;
36191;SDS011;22233;42.708;23.360;2023-04-05T01:51:39;5.38;;;3.75;;
36191;SDS011;22233;42.708;23.360;2023-04-05T01:54:06;4.75;;;3.50;;
36191;SDS011;22233;42.708;23.360;2023-04-05T01:56:32;5.85;;;4.30;;
36191;SDS011;22233;42.708;23.360;2023-04-05T01:58:57;5.18;;;3.35;;
36191;SDS011;22233;42.708;23.360;2023-04-05T02:01:23;7.93;;;3.60;;
36191;SDS011;22233;42.708;23.360;2023-04-05T02:03:49;4.53;;;3.55;;
36191;SDS011;22233;42.708;23.360;2023-04-05T02:06:14;4.88;;;3.72;;
36191;SDS011;22233;42.708;23.360;2023-04-05T02:08:40;4.50;;;3.42;;
36191;SDS011;22233;42.708;23.360;2023-04-05T02:11:05;4.07;;;3.03;;
36191;SDS011;22233;42.708;23.360;2023-04-05T02:13:31;4.72;;;3.20;;
36191;SDS011;22233;42.708;23.360;2023-04-05T02:15:56;4.88;;;3.28;;
36191;SDS011;22233;42.708;23.360;2023-04-05T02:18:22;7.40;;;4.10;;
36191;SDS011;22233;42.708;23.360;2023-04-05T02:20:59;4.13;;;3.30;;
36191;SDS011;22233;42.708;23.360;2023-04-05T02:23:36;6.65;;;3.67;;
36191;SDS011;22233;42.708;23.360;2023-04-05T02:26:02;4.15;;;3.17;;
36191;SDS011;22233;42.708;23.360;2023-04-05T02:28:28;3.50;;;2.25;;
36191;SDS011;22233;42.708;23.360;2023-04-05T02:30:53;3.78;;;2.97;;
36191;SDS011;22233;42.708;23.360;2023-04-05T02:33:19;3.50;;;3.20;;
36191;SDS011;22233;42.708;23.360;2023-04-05T02:35:47;4.25;;;3.10;;
36191;SDS011;22233;42.708;23.360;2023-04-05T02:38:13;3.50;;;3.00;;
36191;SDS011;22233;42.708;23.360;2023-04-05T02:40:38;5.57;;;3.55;;
36191;SDS011;22233;42.708;23.360;2023-04-05T02:43:05;4.03;;;2.95;;
36191;SDS011;22233;42.708;23.360;2023-04-05T02:45:31;4.63;;;3.13;;
36191;SDS011;22233;42.708;23.360;2023-04-05T02:47:56;4.57;;;3.10;;
36191;SDS011;22233;42.708;23.360;2023-04-05T02:50:22;4.93;;;3.67;;
36191;SDS011;22233;42.708;23.360;2023-04-05T02:52:48;4.70;;;3.35;;
36191;SDS011;22233;42.708;23.360;2023-04-05T02:55:16;4.97;;;3.50;;
36191;SDS011;22233;42.708;23.360;2023-04-05T02:57:42;3.40;;;2.90;;
36191;SDS011;22233;42.708;23.360;2023-04-05T03:00:07;3.30;;;2.33;;
36191;SDS011;22233;42.708;23.360;2023-04-05T03:02:34;3.78;;;3.20;;
36191;SDS011;22233;42.708;23.360;2023-04-05T03:05:01;3.72;;;2.88;;
36191;SDS011;22233;42.708;23.360;2023-04-05T03:07:27;3.72;;;2.72;;
36191;SDS011;22233;42.708;23.360;2023-04-05T03:09:53;4.30;;;3.05;;
36191;SDS011;22233;42.708;23.360;2023-04-05T03:12:19;3.47;;;2.65;;
36191;SDS011;22233;42.708;23.360;2023-04-05T03:14:44;4.57;;;3.13;;
36191;SDS011;22233;42.708;23.360;2023-04-05T03:17:10;3.53;;;2.42;;
36191;SDS011;22233;42.708;23.360;2023-04-05T03:19:36;4.22;;;3.00;;
36191;SDS011;22233;42.708;23.360;2023-04-05T03:22:02;4.45;;;2.97;;
36191;SDS011;22233;42.708;23.360;2023-04-05T03:24:28;3.53;;;3.00;;
36191;SDS011;22233;42.708;23.360;2023-04-05T03:26:53;4.45;;;2.65;;
36191;SDS011;22233;42.708;23.360;2023-04-05T03:29:19;3.58;;;2.90;;
36191;SDS011;22233;42.708;23.360;2023-04-05T03:31:44;4.40;;;3.22;;
36191;SDS011;22233;42.708;23.360;2023-04-05T03:34:10;4.97;;;3.50;;
36191;SDS011;22233;42.708;23.360;2023-04-05T03:36:35;4.43;;;3.05;;
36191;SDS011;22233;42.708;23.360;2023-04-05T03:39:10;3.95;;;3.55;;
36191;SDS011;22233;42.708;23.360;2023-04-05T03:41:37;11.80;;;3.17;;
36191;SDS011;22233;42.708;23.360;2023-04-05T03:44:03;3.60;;;3.25;;
36191;SDS011;22233;42.708;23.360;2023-04-05T03:46:29;4.22;;;2.97;;
36191;SDS011;22233;42.708;23.360;2023-04-05T03:48:55;4.00;;;3.60;;
36191;SDS011;22233;42.708;23.360;2023-04-05T03:51:21;3.22;;;2.92;;
36191;SDS011;22233;42.708;23.360;2023-04-05T03:53:46;3.13;;;2.55;;
36191;SDS011;22233;42.708;23.360;2023-04-05T03:56:12;3.50;;;2.38;;
36191;SDS011;22233;42.708;23.360;2023-04-05T03:58:37;3.47;;;3.08;;
36191;SDS011;22233;42.708;23.360;2023-04-05T04:01:03;2.88;;;2.45;;
36191;SDS011;22233;42.708;23.360;2023-04-05T04:03:28;4.22;;;3.03;;
36191;SDS011;22233;42.708;23.360;2023-04-05T04:05:55;4.35;;;3.30;;
36191;SDS011;22233;42.708;23.360;2023-04-05T04:08:21;3.78;;;2.70;;
36191;SDS011;22233;42.708;23.360;2023-04-05T04:10:47;4.10;;;3.03;;
36191;SDS011;22233;42.708;23.360;2023-04-05T04:13:12;3.30;;;2.55;;
36191;SDS011;22233;42.708;23.360;2023-04-05T04:15:38;4.18;;;2.80;;
36191;SDS011;22233;42.708;23.360;2023-04-05T04:18:03;3.58;;;2.55;;
36191;SDS011;22233;42.708;23.360;2023-04-05T04:20:29;4.40;;;3.08;;
36191;SDS011;22233;42.708;23.360;2023-04-05T04:22:57;2.65;;;2.33;;
36191;SDS011;22233;42.708;23.360;2023-04-05T04:25:22;2.60;;;2.30;;
36191;SDS011;22233;42.708;23.360;2023-04-05T04:27:50;3.35;;;2.42;;
36191;SDS011;22233;42.708;23.360;2023-04-05T04:30:16;2.85;;;2.55;;
36191;SDS011;22233;42.708;23.360;2023-04-05T04:32:46;4.03;;;2.30;;
36191;SDS011;22233;42.708;23.360;2023-04-05T04:35:16;3.35;;;2.15;;
36191;SDS011;22233;42.708;23.360;2023-04-05T04:37:55;4.22;;;2.40;;
36191;SDS011;22233;42.708;23.360;2023-04-05T04:40:23;3.33;;;2.22;;
36191;SDS011;22233;42.708;23.360;2023-04-05T04:42:53;5.13;;;2.53;;
36191;SDS011;22233;42.708;23.360;2023-04-05T04:45:22;3.35;;;2.95;;
36191;SDS011;22233;42.708;23.360;2023-04-05T04:47:48;3.35;;;2.85;;
36191;SDS011;22233;42.708;23.360;2023-04-05T04:50:16;2.28;;;2.00;;
36191;SDS011;22233;42.708;23.360;2023-04-05T04:52:43;3.08;;;2.75;;
36191;SDS011;22233;42.708;23.360;2023-04-05T04:55:09;4.65;;;2.85;;
36191;SDS011;22233;42.708;23.360;2023-04-05T04:57:38;3.50;;;2.53;;
36191;SDS011;22233;42.708;23.360;2023-04-05T05:00:10;3.25;;;2.25;;
36191;SDS011;22233;42.708;23.360;2023-04-05T05:02:42;2.22;;;1.95;;
36191;SDS011;22233;42.708;23.360;2023-04-05T05:05:08;3.55;;;2.38;;
36191;SDS011;22233;42.708;23.360;2023-04-05T05:07:34;2.22;;;1.70;;
36191;SDS011;22233;42.708;23.360;2023-04-05T05:10:00;2.58;;;2.20;;
36191;SDS011;22233;42.708;23.360;2023-04-05T05:12:26;2.58;;;1.95;;
36191;SDS011;22233;42.708;23.360;2023-04-05T05:14:52;2.83;;;2.00;;
36191;SDS011;22233;42.708;23.360;2023-04-05T05:17:17;5.05;;;3.15;;
36191;SDS011;22233;42.708;23.360;2023-04-05T05:19:44;3.00;;;2.38;;
36191;SDS011;22233;42.708;23.360;2023-04-05T05:22:09;4.57;;;2.80;;
36191;SDS011;22233;42.708;23.360;2023-04-05T05:24:35;5.55;;;2.83;;
36191;SDS011;22233;42.708;23.360;2023-04-05T05:27:01;3.65;;;1.90;;
36191;SDS011;22233;42.708;23.360;2023-04-05T05:29:26;3.60;;;2.25;;
36191;SDS011;22233;42.708;23.360;2023-04-05T05:31:53;4.10;;;2.58;;
36191;SDS011;22233;42.708;23.360;2023-04-05T05:34:19;3.20;;;2.28;;
36191;SDS011;22233;42.708;23.360;2023-04-05T05:36:44;2.92;;;2.53;;
36191;SDS011;22233;42.708;23.360;2023-04-05T05:39:10;2.72;;;2.40;;
36191;SDS011;22233;42.708;23.360;2023-04-05T05:41:36;4.22;;;2.33;;
36191;SDS011;22233;42.708;23.360;2023-04-05T05:44:01;2.53;;;2.15;;
36191;SDS011;22233;42.708;23.360;2023-04-05T05:46:27;2.70;;;2.15;;
36191;SDS011;22233;42.708;23.360;2023-04-05T05:48:52;4.20;;;2.20;;
36191;SDS011;22233;42.708;23.360;2023-04-05T05:51:17;2.17;;;1.90;;
36191;SDS011;22233;42.708;23.360;2023-04-05T05:53:43;1.80;;;1.65;;
36191;SDS011;22233;42.708;23.360;2023-04-05T05:56:09;3.58;;;2.42;;
36191;SDS011;22233;42.708;23.360;2023-04-05T05:58:35;2.25;;;1.75;;
36191;SDS011;22233;42.708;23.360;2023-04-05T06:01:02;2.92;;;1.88;;
36191;SDS011;22233;42.708;23.360;2023-04-05T06:03:28;2.10;;;1.52;;
36191;SDS011;22233;42.708;23.360;2023-04-05T06:05:54;2.55;;;1.83;;
36191;SDS011;22233;42.708;23.360;2023-04-05T06:08:24;1.65;;;1.55;;
36191;SDS011;22233;42.708;23.360;2023-04-05T06:10:53;2.15;;;1.80;;
36191;SDS011;22233;42.708;23.360;2023-04-05T06:13:19;2.28;;;2.03;;
36191;SDS011;22233;42.708;23.360;2023-04-05T06:15:46;1.75;;;1.45;;
36191;SDS011;22233;42.708;23.360;2023-04-05T06:18:11;2.73;;;1.53;;
36191;SDS011;22233;42.708;23.360;2023-04-05T06:20:37;2.10;;;1.63;;
36191;SDS011;22233;42.708;23.360;2023-04-05T06:23:05;2.17;;;1.77;;
36191;SDS011;22233;42.708;23.360;2023-04-05T06:25:31;1.60;;;1.45;;
36191;SDS011;22233;42.708;23.360;2023-04-05T06:27:56;3.22;;;1.20;;
36191;SDS011;22233;42.708;23.360;2023-04-05T06:30:22;3.67;;;1.50;;
36191;SDS011;22233;42.708;23.360;2023-04-05T06:32:47;2.50;;;1.85;;
36191;SDS011;22233;42.708;23.360;2023-04-05T06:35:18;1.60;;;1.35;;
36191;SDS011;22233;42.708;23.360;2023-04-05T06:37:46;2.67;;;1.38;;
36191;SDS011;22233;42.708;23.360;2023-04-05T06:40:12;2.13;;;1.30;;
36191;SDS011;22233;42.708;23.360;2023-04-05T06:42:38;3.45;;;1.88;;
36191;SDS011;22233;42.708;23.360;2023-04-05T06:45:03;2.78;;;1.30;;
36191;SDS011;22233;42.708;23.360;2023-04-05T06:47:33;2.08;;;1.60;;
36191;SDS011;22233;42.708;23.360;2023-04-05T06:49:59;2.42;;;1.60;;
36191;SDS011;22233;42.708;23.360;2023-04-05T06:52:26;1.45;;;1.30;;
36191;SDS011;22233;42.708;23.360;2023-04-05T06:54:51;1.67;;;1.35;;
36191;SDS011;22233;42.708;23.360;2023-04-05T06:57:17;2.60;;;1.85;;
36191;SDS011;22233;42.708;23.360;2023-04-05T06:59:42;2.00;;;1.63;;
36191;SDS011;22233;42.708;23.360;2023-04-05T07:02:08;2.05;;;1.55;;
36191;SDS011;22233;42.708;23.360;2023-04-05T07:04:33;2.58;;;1.40;;
36191;SDS011;22233;42.708;23.360;2023-04-05T07:07:01;2.13;;;1.60;;
36191;SDS011;22233;42.708;23.360;2023-04-05T07:09:27;3.40;;;2.05;;
36191;SDS011;22233;42.708;23.360;2023-04-05T07:11:55;2.58;;;1.67;;
36191;SDS011;22233;42.708;23.360;2023-04-05T07:14:21;2.47;;;1.50;;
36191;SDS011;22233;42.708;23.360;2023-04-05T07:16:47;1.90;;;1.42;;
36191;SDS011;22233;42.708;23.360;2023-04-05T07:19:12;1.02;;;0.93;;
36191;SDS011;22233;42.708;23.360;2023-04-05T07:21:38;1.52;;;1.35;;
36191;SDS011;22233;42.708;23.360;2023-04-05T07:24:04;1.42;;;1.30;;
36191;SDS011;22233;42.708;23.360;2023-04-05T07:26:30;1.92;;;1.50;;
36191;SDS011;22233;42.708;23.360;2023-04-05T07:28:59;3.13;;;1.58;;
36191;SDS011;22233;42.708;23.360;2023-04-05T07:31:26;2.00;;;1.65;;
36191;SDS011;22233;42.708;23.360;2023-04-05T07:33:51;2.60;;;1.08;;
36191;SDS011;22233;42.708;23.360;2023-04-05T07:36:17;1.70;;;1.30;;
36191;SDS011;22233;42.708;23.360;2023-04-05T07:38:42;1.42;;;1.20;;
36191;SDS011;22233;42.708;23.360;2023-04-05T07:41:09;2.28;;;1.38;;
36191;SDS011;22233;42.708;23.360;2023-04-05T07:43:35;3.42;;;1.92;;
36191;SDS011;22233;42.708;23.360;2023-04-05T07:46:01;4.20;;;2.40;;
36191;SDS011;22233;42.708;23.360;2023-04-05T07:48:30;6.45;;;1.90;;
36191;SDS011;22233;42.708;23.360;2023-04-05T07:50:55;3.28;;;1.73;;
36191;SDS011;22233;42.708;23.360;2023-04-05T07:53:21;3.35;;;2.10;;
36191;SDS011;22233;42.708;23.360;2023-04-05T07:55:48;1.90;;;1.10;;
36191;SDS011;22233;42.708;23.360;2023-04-05T07:58:14;1.60;;;1.30;;
36191;SDS011;22233;42.708;23.360;2023-04-05T08:00:40;1.33;;;1.00;;
36191;SDS011;22233;42.708;23.360;2023-04-05T08:03:05;2.45;;;1.30;;
36191;SDS011;22233;42.708;23.360;2023-04-05T08:05:31;1.40;;;1.08;;
36191;SDS011;22233;42.708;23.360;2023-04-05T08:07:56;1.20;;;0.98;;
36191;SDS011;22233;42.708;23.360;2023-04-05T08:10:23;2.40;;;1.17;;
36191;SDS011;22233;42.708;23.360;2023-04-05T08:12:48;1.17;;;1.08;;
36191;SDS011;22233;42.708;23.360;2023-04-05T08:15:14;0.93;;;0.80;;
36191;SDS011;22233;42.708;23.360;2023-04-05T08:17:39;2.05;;;1.00;;
36191;SDS011;22233;42.708;23.360;2023-04-05T08:20:05;2.65;;;1.20;;
36191;SDS011;22233;42.708;23.360;2023-04-05T08:22:31;2.08;;;1.30;;
36191;SDS011;22233;42.708;23.360;2023-04-05T08:24:56;1.58;;;1.20;;
36191;SDS011;22233;42.708;23.360;2023-04-05T08:27:22;1.95;;;1.50;;
36191;SDS011;22233;42.708;23.360;2023-04-05T08:29:47;3.50;;;1.20;;
36191;SDS011;22233;42.708;23.360;2023-04-05T08:32:13;1.35;;;1.05;;
36191;SDS011;22233;42.708;23.360;2023-04-05T08:34:38;1.77;;;1.40;;
36191;SDS011;22233;42.708;23.360;2023-04-05T08:37:04;1.83;;;1.50;;
36191;SDS011;22233;42.708;23.360;2023-04-05T08:39:29;2.38;;;1.58;;
36191;SDS011;22233;42.708;23.360;2023-04-05T08:44:38;2.70;;;1.60;;
36191;SDS011;22233;42.708;23.360;2023-04-05T08:47:05;2.78;;;1.63;;
36191;SDS011;22233;42.708;23.360;2023-04-05T08:49:34;1.98;;;1.20;;
36191;SDS011;22233;42.708;23.360;2023-04-05T08:51:59;1.60;;;1.50;;
36191;SDS011;22233;42.708;23.360;2023-04-05T08:54:27;2.13;;;1.60;;
36191;SDS011;22233;42.708;23.360;2023-04-05T08:56:52;2.08;;;1.48;;
36191;SDS011;22233;42.708;23.360;2023-04-05T08:59:18;1.77;;;1.40;;
36191;SDS011;22233;42.708;23.360;2023-04-05T09:01:45;1.98;;;1.60;;
36191;SDS011;22233;42.708;23.360;2023-04-05T09:04:14;2.22;;;1.60;;
36191;SDS011;22233;42.708;23.360;2023-04-05T09:06:44;3.30;;;2.22;;
36191;SDS011;22233;42.708;23.360;2023-04-05T09:09:10;2.90;;;1.95;;
36191;SDS011;22233;42.708;23.360;2023-04-05T09:11:36;1.63;;;1.52;;
36191;SDS011;22233;42.708;23.360;2023-04-05T09:14:04;3.95;;;2.13;;
36191;SDS011;22233;42.708;23.360;2023-04-05T09:16:31;3.50;;;2.60;;
36191;SDS011;22233;42.708;23.360;2023-04-05T09:19:00;2.30;;;1.75;;
36191;SDS011;22233;42.708;23.360;2023-04-05T09:21:26;4.32;;;2.38;;
36191;SDS011;22233;42.708;23.360;2023-04-05T09:23:53;2.20;;;2.00;;
36191;SDS011;22233;42.708;23.360;2023-04-05T09:26:20;2.47;;;1.83;;
36191;SDS011;22233;42.708;23.360;2023-04-05T09:28:47;2.22;;;1.70;;
36191;SDS011;22233;42.708;23.360;2023-04-05T09:33:58;1.90;;;1.70;;
36191;SDS011;22233;42.708;23.360;2023-04-05T09:36:27;2.33;;;1.63;;
36191;SDS011;22233;42.708;23.360;2023-04-05T09:38:53;3.85;;;2.35;;
36191;SDS011;22233;42.708;23.360;2023-04-05T09:41:29;2.47;;;1.60;;
36191;SDS011;22233;42.708;23.360;2023-04-05T09:43:55;1.98;;;1.77;;
36191;SDS011;22233;42.708;23.360;2023-04-05T09:46:53;1.67;;;1.58;;
36191;SDS011;22233;42.708;23.360;2023-04-05T09:49:12;2.17;;;1.90;;
36191;SDS011;22233;42.708;23.360;2023-04-05T09:51:38;2.78;;;2.10;;
36191;SDS011;22233;42.708;23.360;2023-04-05T09:56:36;2.58;;;2.38;;
36191;SDS011;22233;42.708;23.360;2023-04-05T09:59:07;2.80;;;2.22;;
36191;SDS011;22233;42.708;23.360;2023-04-05T10:01:37;2.92;;;2.33;;
36191;SDS011;22233;42.708;23.360;2023-04-05T10:04:03;2.92;;;2.33;;
36191;SDS011;22233;42.708;23.360;2023-04-05T10:06:35;3.97;;;2.15;;
36191;SDS011;22233;42.708;23.360;2023-04-05T10:09:02;2.17;;;1.95;;
36191;SDS011;22233;42.708;23.360;2023-04-05T10:11:29;2.85;;;1.67;;
36191;SDS011;22233;42.708;23.360;2023-04-05T10:13:56;2.70;;;2.20;;
36191;SDS011;22233;42.708;23.360;2023-04-05T10:16:24;3.95;;;2.42;;
36191;SDS011;22233;42.708;23.360;2023-04-05T10:18:52;2.75;;;2.03;;
36191;SDS011;22233;42.708;23.360;2023-04-05T10:21:20;4.10;;;2.50;;
36191;SDS011;22233;42.708;23.360;2023-04-05T10:23:50;2.55;;;2.33;;
36191;SDS011;22233;42.708;23.360;2023-04-05T10:26:48;3.05;;;2.00;;
36191;SDS011;22233;42.708;23.360;2023-04-05T10:29:16;3.47;;;2.45;;
36191;SDS011;22233;42.708;23.360;2023-04-05T10:31:49;2.42;;;2.22;;
36191;SDS011;22233;42.708;23.360;2023-04-05T10:35:04;5.32;;;2.40;;
36191;SDS011;22233;42.708;23.360;2023-04-05T10:39:59;2.70;;;2.28;;
36191;SDS011;22233;42.708;23.360;2023-04-05T10:42:33;4.30;;;2.60;;
36191;SDS011;22233;42.708;23.360;2023-04-05T10:45:05;2.75;;;2.50;;
36191;SDS011;22233;42.708;23.360;2023-04-05T10:47:36;2.58;;;2.35;;
36191;SDS011;22233;42.708;23.360;2023-04-05T10:50:20;2.95;;;2.33;;
36191;SDS011;22233;42.708;23.360;2023-04-05T10:52:47;3.53;;;2.45;;
36191;SDS011;22233;42.708;23.360;2023-04-05T10:55:13;2.92;;;2.28;;
36191;SDS011;22233;42.708;23.360;2023-04-05T10:57:40;4.78;;;3.15;;
36191;SDS011;22233;42.708;23.360;2023-04-05T11:00:08;4.28;;;3.20;;
36191;SDS011;22233;42.708;23.360;2023-04-05T11:02:35;2.92;;;2.60;;
36191;SDS011;22233;42.708;23.360;2023-04-05T11:05:02;3.05;;;2.67;;
36191;SDS011;22233;42.708;23.360;2023-04-05T11:07:41;4.60;;;2.72;;
36191;SDS011;22233;42.708;23.360;2023-04-05T11:10:08;4.47;;;2.40;;
36191;SDS011;22233;42.708;23.360;2023-04-05T11:23:07;6.30;;;3.15;;
36191;SDS011;22233;42.708;23.360;2023-04-05T11:25:36;3.22;;;2.40;;
36191;SDS011;22233;42.708;23.360;2023-04-05T11:28:04;3.10;;;2.80;;
36191;SDS011;22233;42.708;23.360;2023-04-05T11:31:11;2.83;;;2.17;;
36191;SDS011;22233;42.708;23.360;2023-04-05T11:36:08;3.53;;;2.72;;
36191;SDS011;22233;42.708;23.360;2023-04-05T11:38:34;4.32;;;3.17;;
36191;SDS011;22233;42.708;23.360;2023-04-05T11:41:11;3.60;;;2.92;;
36191;SDS011;22233;42.708;23.360;2023-04-05T11:43:48;4.13;;;3.20;;
36191;SDS011;22233;42.708;23.360;2023-04-05T11:46:16;3.90;;;2.78;;
36191;SDS011;22233;42.708;23.360;2023-04-05T11:48:48;3.88;;;3.00;;
36191;SDS011;22233;42.708;23.360;2023-04-05T11:51:14;5.65;;;3.03;;
36191;SDS011;22233;42.708;23.360;2023-04-05T11:53:44;3.47;;;2.97;;
36191;SDS011;22233;42.708;23.360;2023-04-05T11:56:10;3.70;;;3.10;;
36191;SDS011;22233;42.708;23.360;2023-04-05T11:58:39;3.17;;;2.78;;
36191;SDS011;22233;42.708;23.360;2023-04-05T12:01:06;3.67;;;2.88;;
36191;SDS011;22233;42.708;23.360;2023-04-05T12:03:32;3.75;;;2.95;;
36191;SDS011;22233;42.708;23.360;2023-04-05T12:05:59;3.67;;;3.17;;
36191;SDS011;22233;42.708;23.360;2023-04-05T12:08:38;4.53;;;3.65;;
36191;SDS011;22233;42.708;23.360;2023-04-05T12:11:13;5.28;;;3.30;;
36191;SDS011;22233;42.708;23.360;2023-04-05T12:13:39;5.15;;;3.63;;
36191;SDS011;22233;42.708;23.360;2023-04-05T12:16:05;3.95;;;2.92;;
36191;SDS011;22233;42.708;23.360;2023-04-05T12:18:33;7.53;;;3.28;;
36191;SDS011;22233;42.708;23.360;2023-04-05T12:23:27;5.20;;;3.95;;
36191;SDS011;22233;42.708;23.360;2023-04-05T12:25:54;4.45;;;3.58;;
36191;SDS011;22233;42.708;23.360;2023-04-05T12:33:15;4.95;;;3.28;;
36191;SDS011;22233;42.708;23.360;2023-04-05T12:35:51;6.22;;;3.30;;
36191;SDS011;22233;42.708;23.360;2023-04-05T12:38:16;6.10;;;4.45;;
36191;SDS011;22233;42.708;23.360;2023-04-05T12:40:41;4.15;;;3.38;;
36191;SDS011;22233;42.708;23.360;2023-04-05T12:43:08;5.50;;;4.47;;
36191;SDS011;22233;42.708;23.360;2023-04-05T12:45:34;4.82;;;3.85;;
36191;SDS011;22233;42.708;23.360;2023-04-05T12:50:43;5.60;;;4.78;;
36191;SDS011;22233;42.708;23.360;2023-04-05T12:53:16;4.45;;;3.65;;
36191;SDS011;22233;42.708;23.360;2023-04-05T12:55:47;4.78;;;3.80;;
36191;SDS011;22233;42.708;23.360;2023-04-05T12:58:15;6.28;;;4.45;;
36191;SDS011;22233;42.708;23.360;2023-04-05T13:00:41;6.03;;;4.07;;
36191;SDS011;22233;42.708;23.360;2023-04-05T13:03:13;4.43;;;3.58;;
36191;SDS011;22233;42.708;23.360;2023-04-05T13:05:44;4.45;;;3.50;;
36191;SDS011;22233;42.708;23.360;2023-04-05T13:08:11;3.40;;;3.10;;
36191;SDS011;22233;42.708;23.360;2023-04-05T13:10:36;5.82;;;3.90;;
36191;SDS011;22233;42.708;23.360;2023-04-05T13:13:02;5.10;;;3.88;;
36191;SDS011;22233;42.708;23.360;2023-04-05T13:15:27;6.10;;;4.07;;
36191;SDS011;22233;42.708;23.360;2023-04-05T13:17:53;5.90;;;3.88;;
36191;SDS011;22233;42.708;23.360;2023-04-05T13:20:19;5.65;;;3.92;;
36191;SDS011;22233;42.708;23.360;2023-04-05T13:22:45;6.50;;;4.50;;
36191;SDS011;22233;42.708;23.360;2023-04-05T13:25:11;6.68;;;3.13;;
36191;SDS011;22233;42.708;23.360;2023-04-05T13:27:37;6.95;;;4.47;;
36191;SDS011;22233;42.708;23.360;2023-04-05T13:30:03;5.70;;;4.18;;
36191;SDS011;22233;42.708;23.360;2023-04-05T13:32:29;6.25;;;4.57;;
36191;SDS011;22233;42.708;23.360;2023-04-05T13:34:54;7.80;;;4.50;;
36191;SDS011;22233;42.708;23.360;2023-04-05T13:37:20;7.00;;;4.45;;
36191;SDS011;22233;42.708;23.360;2023-04-05T13:39:45;7.85;;;4.50;;
36191;SDS011;22233;42.708;23.360;2023-04-05T13:42:11;11.18;;;4.97;;
36191;SDS011;22233;42.708;23.360;2023-04-05T13:44:36;5.75;;;4.05;;
36191;SDS011;22233;42.708;23.360;2023-04-05T13:47:02;6.47;;;3.55;;
36191;SDS011;22233;42.708;23.360;2023-04-05T13:49:28;5.82;;;5.00;;
36191;SDS011;22233;42.708;23.360;2023-04-05T13:51:53;5.95;;;5.35;;
36191;SDS011;22233;42.708;23.360;2023-04-05T13:54:18;5.30;;;4.55;;
36191;SDS011;22233;42.708;23.360;2023-04-05T13:56:44;5.05;;;4.20;;
36191;SDS011;22233;42.708;23.360;2023-04-05T13:59:10;5.10;;;4.22;;
36191;SDS011;22233;42.708;23.360;2023-04-05T14:01:40;6.30;;;4.47;;
36191;SDS011;22233;42.708;23.360;2023-04-05T14:04:09;4.55;;;3.88;;
36191;SDS011;22233;42.708;23.360;2023-04-05T14:06:35;6.22;;;3.67;;
36191;SDS011;22233;42.708;23.360;2023-04-05T14:09:00;4.45;;;4.03;;
36191;SDS011;22233;42.708;23.360;2023-04-05T14:11:25;4.13;;;3.58;;
36191;SDS011;22233;42.708;23.360;2023-04-05T14:13:51;5.38;;;4.05;;
36191;SDS011;22233;42.708;23.360;2023-04-05T14:16:16;5.47;;;4.18;;
36191;SDS011;22233;42.708;23.360;2023-04-05T14:18:42;4.70;;;3.83;;
36191;SDS011;22233;42.708;23.360;2023-04-05T14:21:07;5.10;;;4.60;;
36191;SDS011;22233;42.708;23.360;2023-04-05T14:23:33;9.07;;;5.15;;
36191;SDS011;22233;42.708;23.360;2023-04-05T14:25:59;5.63;;;4.45;;
36191;SDS011;22233;42.708;23.360;2023-04-05T14:28:25;6.40;;;4.35;;
36191;SDS011;22233;42.708;23.360;2023-04-05T14:30:50;7.28;;;5.47;;
36191;SDS011;22233;42.708;23.360;2023-04-05T14:33:16;6.43;;;4.63;;
36191;SDS011;22233;42.708;23.360;2023-04-05T14:35:41;4.57;;;4.18;;
36191;SDS011;22233;42.708;23.360;2023-04-05T14:38:07;6.20;;;5.22;;
36191;SDS011;22233;42.708;23.360;2023-04-05T14:40:33;6.50;;;4.70;;
36191;SDS011;22233;42.708;23.360;2023-04-05T14:42:58;6.18;;;4.55;;
36191;SDS011;22233;42.708;23.360;2023-04-05T14:45:24;5.85;;;4.75;;
36191;SDS011;22233;42.708;23.360;2023-04-05T14:47:51;5.97;;;4.63;;
36191;SDS011;22233;42.708;23.360;2023-04-05T14:50:17;5.38;;;4.60;;
36191;SDS011;22233;42.708;23.360;2023-04-05T14:52:43;6.10;;;4.65;;
36191;SDS011;22233;42.708;23.360;2023-04-05T14:55:09;7.20;;;5.40;;
36191;SDS011;22233;42.708;23.360;2023-04-05T14:57:37;10.00;;;5.97;;
36191;SDS011;22233;42.708;23.360;2023-04-05T15:00:04;6.95;;;5.45;;
36191;SDS011;22233;42.708;23.360;2023-04-05T15:02:31;7.43;;;6.03;;
36191;SDS011;22233;42.708;23.360;2023-04-05T15:04:57;7.35;;;5.20;;
36191;SDS011;22233;42.708;23.360;2023-04-05T15:07:24;7.57;;;5.50;;
36191;SDS011;22233;42.708;23.360;2023-04-05T15:09:50;8.77;;;6.15;;
36191;SDS011;22233;42.708;23.360;2023-04-05T15:12:16;8.38;;;5.63;;
36191;SDS011;22233;42.708;23.360;2023-04-05T15:14:41;7.95;;;6.32;;
36191;SDS011;22233;42.708;23.360;2023-04-05T15:19:34;8.50;;;6.53;;
36191;SDS011;22233;42.708;23.360;2023-04-05T15:22:00;11.57;;;7.60;;
36191;SDS011;22233;42.708;23.360;2023-04-05T15:24:25;10.65;;;7.13;;